createdAt,value
2023-02-08T00:03:43.208Z,71.57
2023-02-08T00:08:46.317Z,70.70
2023-02-08T00:13:48.793Z,100.07
2023-02-08T00:18:51.327Z,123.80
2023-02-08T00:23:53.795Z,91.77
2023-02-08T00:28:56.184Z,69.70
2023-02-08T00:33:58.570Z,64.00
2023-02-08T00:39:02.164Z,67.20
2023-02-08T00:44:04.762Z,71.80
2023-02-08T00:49:07.289Z,71.33
2023-02-08T00:54:14.840Z,68.80
2023-02-08T00:59:17.326Z,66.67
2023-02-08T01:04:20.735Z,77.93
2023-02-08T01:09:23.316Z,75.53
2023-02-08T01:14:26.038Z,75.57
2023-02-08T01:19:28.469Z,65.80
2023-02-08T01:24:30.890Z,73.20
2023-02-08T01:29:33.332Z,70.33
2023-02-08T01:34:35.861Z,63.67
2023-02-08T01:39:40.036Z,67.37
2023-02-08T01:45:16.442Z,65.50
2023-02-08T01:50:21.689Z,60.67
2023-02-08T01:55:38.903Z,70.50
2023-02-08T02:00:42.245Z,75.17
2023-02-08T02:05:56.144Z,73.67
2023-02-08T02:10:58.761Z,73.23
2023-02-08T02:16:01.183Z,67.17
2023-02-08T02:21:21.162Z,74.53
2023-02-08T02:26:36.225Z,65.17
2023-02-08T02:32:00.693Z,60.77
2023-02-08T02:37:11.889Z,62.80
2023-02-08T02:42:56.461Z,59.93
2023-02-08T02:48:20.326Z,57.33
2023-02-08T02:53:54.296Z,58.87
2023-02-08T02:59:02.602Z,57.73
2023-02-08T03:04:38.606Z,55.63
2023-02-08T03:10:20.772Z,59.97
2023-02-08T03:15:47.979Z,56.53
2023-02-08T03:20:53.357Z,70.07
2023-02-08T03:26:03.045Z,58.73
2023-02-08T03:31:17.609Z,60.20
2023-02-08T03:36:39.408Z,59.73
2023-02-08T03:41:46.355Z,63.50
2023-02-08T03:46:56.507Z,60.37
2023-02-08T03:52:02.492Z,62.23
2023-02-08T03:57:29.709Z,63.40
2023-02-08T04:02:37.758Z,65.03
2023-02-08T04:07:40.539Z,62.03
2023-02-08T04:12:43.857Z,62.43
2023-02-08T04:17:46.368Z,62.50
2023-02-08T04:22:48.964Z,67.53
2023-02-08T04:27:51.426Z,62.67
2023-02-08T04:32:53.862Z,69.37
2023-02-08T04:37:56.356Z,61.17
2023-02-08T04:42:58.811Z,71.47
2023-02-08T04:48:01.860Z,67.17
2023-02-08T04:53:04.371Z,60.80
2023-02-08T04:58:06.953Z,67.47
2023-02-08T05:03:10.009Z,63.57
2023-02-08T05:08:12.861Z,63.67
2023-02-08T05:13:15.267Z,64.47
2023-02-08T05:18:17.684Z,63.27
2023-02-08T05:23:20.112Z,64.60
2023-02-08T05:28:22.597Z,64.73
2023-02-08T05:33:25.090Z,63.70
2023-02-08T05:38:27.639Z,65.83
2023-02-08T05:43:30.101Z,78.40
2023-02-08T05:48:32.848Z,66.70
2023-02-08T05:53:35.365Z,68.73
2023-02-08T05:58:37.936Z,67.77
2023-02-08T06:03:40.848Z,65.40
2023-02-08T06:08:43.701Z,55.80
2023-02-08T06:13:47.048Z,52.03
2023-02-08T06:18:49.485Z,93.33
2023-02-08T06:23:51.971Z,71.50
2023-02-08T06:28:54.404Z,51.73
2023-02-08T06:33:56.832Z,46.40
2023-02-08T06:38:59.477Z,60.03
2023-02-08T06:44:02.633Z,47.63
2023-02-08T06:49:05.067Z,52.83
2023-02-08T06:54:07.527Z,39.77
2023-02-08T06:59:10.229Z,36.40
2023-02-08T07:04:12.652Z,41.30
2023-02-08T07:09:15.532Z,86.03
2023-02-08T07:14:18.138Z,32.20
2023-02-08T07:19:20.609Z,38.07
2023-02-08T07:24:23.779Z,33.50
2023-02-08T07:29:26.211Z,33.70
2023-02-08T07:34:34.584Z,25.57
2023-02-08T07:39:37.027Z,36.87
2023-02-08T07:44:39.694Z,38.53
2023-02-08T07:49:42.131Z,47.10
2023-02-08T07:54:44.593Z,28.60
2023-02-08T07:59:47.752Z,36.50
2023-02-08T08:04:50.165Z,23.00
2023-02-08T08:09:52.691Z,36.20
2023-02-08T08:14:55.173Z,33.83
2023-02-08T08:19:58.742Z,31.73
2023-02-08T08:25:01.144Z,33.70
2023-02-08T08:30:05.970Z,24.57
2023-02-08T08:35:09.378Z,30.60
2023-02-08T08:40:12.551Z,44.70
2023-02-08T08:45:16.080Z,29.60
2023-02-08T08:50:18.766Z,33.00
2023-02-08T08:55:21.168Z,28.50
2023-02-08T09:00:23.714Z,29.07
2023-02-08T09:05:26.115Z,31.17
2023-02-08T09:10:30.826Z,28.97
2023-02-08T09:15:33.211Z,29.53
2023-02-08T09:20:38.933Z,25.47
2023-02-08T09:25:41.491Z,45.30
2023-02-08T09:30:45.828Z,32.37
2023-02-08T09:35:49.636Z,34.50
2023-02-08T09:41:29.182Z,30.47
2023-02-08T09:46:36.038Z,30.53
2023-02-08T09:52:05.836Z,29.47
2023-02-08T09:57:18.027Z,24.10
2023-02-08T10:02:32.176Z,33.70
2023-02-08T10:07:35.769Z,30.63
2023-02-08T10:12:50.314Z,28.60
2023-02-08T10:18:11.861Z,33.50
2023-02-08T10:23:42.458Z,34.47
2023-02-08T10:29:22.612Z,37.30
2023-02-08T10:34:46.126Z,35.07
2023-02-08T10:39:50.813Z,32.20
2023-02-08T10:44:58.959Z,44.10
2023-02-08T10:50:23.093Z,47.10
2023-02-08T10:55:25.698Z,23.87
2023-02-08T11:00:32.010Z,29.17
2023-02-08T11:05:37.002Z,41.57
2023-02-08T11:10:40.980Z,26.23
2023-02-08T11:16:02.034Z,27.90
2023-02-08T11:21:20.884Z,31.07
2023-02-08T11:26:35.089Z,31.23
2023-02-08T11:31:40.841Z,32.40
2023-02-08T11:36:49.613Z,29.73
2023-02-08T11:41:56.263Z,30.03
2023-02-08T11:47:02.321Z,35.77
2023-02-08T11:52:07.497Z,66.80
2023-02-08T11:57:22.222Z,56.67
2023-02-08T12:02:50.822Z,59.07
2023-02-08T12:08:42.932Z,48.63
2023-02-08T12:13:56.668Z,43.97
2023-02-08T12:19:17.674Z,75.73
2023-02-08T12:24:26.856Z,47.67
2023-02-08T12:30:08.529Z,42.40
2023-02-08T12:35:43.275Z,48.37
2023-02-08T12:40:50.868Z,98.20
2023-02-08T12:46:00.690Z,278.97
2023-02-08T12:51:40.372Z,218.13
2023-02-08T12:57:00.296Z,66.47
2023-02-08T13:02:15.102Z,77.00
2023-02-08T13:07:33.005Z,118.57
2023-02-08T13:12:51.725Z,66.80
2023-02-08T13:18:17.463Z,63.77
2023-02-08T13:23:27.832Z,113.40
2023-02-08T13:28:30.909Z,70.00
2023-02-08T13:34:00.832Z,58.17
2023-02-08T13:39:07.795Z,59.77
2023-02-08T13:44:20.975Z,61.00
2023-02-08T13:49:54.692Z,70.10
2023-02-08T13:55:35.966Z,91.27
2023-02-08T14:00:59.151Z,63.73
2023-02-08T14:06:24.139Z,70.57
2023-02-08T14:11:45.578Z,111.23
2023-02-08T14:17:09.550Z,63.90
2023-02-08T14:22:11.877Z,60.67
2023-02-08T14:27:32.976Z,89.03
2023-02-08T14:32:41.091Z,97.50
2023-02-08T14:37:44.468Z,94.73
2023-02-08T14:42:54.285Z,93.27
2023-02-08T14:48:22.102Z,82.63
2023-02-08T14:53:31.084Z,71.60
2023-02-08T14:58:46.624Z,82.07
2023-02-08T15:03:53.300Z,75.60
2023-02-08T15:08:55.903Z,91.47
2023-02-08T15:14:01.874Z,69.40
2023-02-08T15:19:07.415Z,106.50
2023-02-08T15:24:19.701Z,86.93
2023-02-08T15:29:42.893Z,710.53
2023-02-08T15:34:53.755Z,120.37
2023-02-08T15:39:57.837Z,109.20
2023-02-08T15:45:02.738Z,87.10
2023-02-08T15:50:07.855Z,94.70
2023-02-08T15:55:16.799Z,115.73
2023-02-08T16:00:26.620Z,152.10
2023-02-08T16:05:31.838Z,292.73
2023-02-08T16:10:36.859Z,144.77
2023-02-08T16:15:43.222Z,291.20
2023-02-08T16:20:46.483Z,309.13
2023-02-08T16:25:49.857Z,733.70
2023-02-08T16:30:52.934Z,469.47
2023-02-08T16:36:02.144Z,279.20
2023-02-08T16:41:13.127Z,267.47
2023-02-08T16:46:15.659Z,194.10
2023-02-08T16:51:26.103Z,168.37
2023-02-08T16:56:28.785Z,133.57
2023-02-08T17:01:31.913Z,168.90
2023-02-08T17:06:37.067Z,207.80
2023-02-08T17:11:40.742Z,219.77
2023-02-08T17:16:43.947Z,183.50
2023-02-08T17:21:46.339Z,133.53
2023-02-08T17:26:48.783Z,157.60
2023-02-08T17:31:51.582Z,197.90
2023-02-08T17:36:54.035Z,216.20
2023-02-08T17:41:56.546Z,262.90
2023-02-08T17:46:58.929Z,268.77
2023-02-08T17:52:01.327Z,276.97
2023-02-08T17:57:03.806Z,303.80
2023-02-08T18:02:06.664Z,305.83
2023-02-08T18:07:09.117Z,315.60
2023-02-08T18:12:11.667Z,321.23
2023-02-08T18:17:14.040Z,353.37
2023-02-08T18:22:16.907Z,407.50
2023-02-08T18:27:19.329Z,376.13
2023-02-08T18:32:22.592Z,344.57
2023-02-08T18:37:25.131Z,291.97
2023-02-08T18:42:27.649Z,307.43
2023-02-08T18:47:30.126Z,304.57
2023-02-08T18:52:33.937Z,220.67
2023-02-08T18:57:38.938Z,215.80
2023-02-08T19:02:43.574Z,184.67
2023-02-08T19:07:45.903Z,213.87
2023-02-08T19:12:48.249Z,295.30
2023-02-08T19:17:50.604Z,221.67
2023-02-08T19:22:53.041Z,391.47
2023-02-08T19:27:55.457Z,184.90
2023-02-08T19:32:58.470Z,195.83
2023-02-08T19:38:00.949Z,281.73
2023-02-08T19:43:03.418Z,222.03
2023-02-08T19:48:06.024Z,171.50
2023-02-08T19:53:08.745Z,146.07
2023-02-08T19:58:12.742Z,151.40
2023-02-08T20:03:21.442Z,138.97
2023-02-08T20:08:27.383Z,150.50
2023-02-08T20:13:29.980Z,398.47
2023-02-08T20:18:32.432Z,1545.10
2023-02-08T20:23:35.712Z,1252.33
2023-02-08T20:28:41.934Z,1103.90
2023-02-08T20:33:45.513Z,1367.43
2023-02-08T20:38:49.175Z,779.07
2023-02-08T20:43:52.752Z,584.00
2023-02-08T20:48:56.809Z,472.33
2023-02-08T20:54:00.104Z,338.50
2023-02-08T20:59:10.301Z,402.53
2023-02-08T21:04:13.233Z,332.40
2023-02-08T21:09:17.779Z,389.23
2023-02-08T21:14:23.406Z,341.47
2023-02-08T21:19:28.425Z,356.20
2023-02-08T21:24:30.921Z,373.80
2023-02-08T21:29:33.393Z,365.83
2023-02-08T21:34:36.160Z,337.80
2023-02-08T21:39:38.665Z,330.23
2023-02-08T21:44:41.360Z,298.40
2023-02-08T21:50:02.245Z,260.53
2023-02-08T21:55:04.960Z,265.47
2023-02-08T22:00:10.553Z,266.97
2023-02-08T22:05:17.633Z,254.23
2023-02-08T22:10:22.908Z,245.60
2023-02-08T22:15:28.516Z,233.93
2023-02-08T22:20:31.619Z,221.63
2023-02-08T22:25:34.064Z,219.60
2023-02-08T22:30:36.908Z,210.13
2023-02-08T22:35:40.038Z,208.77
2023-02-08T22:40:43.108Z,214.07
2023-02-08T22:45:45.662Z,232.83
2023-02-08T22:50:48.060Z,251.27
2023-02-08T22:55:54.601Z,244.60
2023-02-08T23:00:57.000Z,247.80
2023-02-08T23:05:59.425Z,219.80
2023-02-08T23:11:04.183Z,194.27
2023-02-08T23:16:07.042Z,205.23
2023-02-08T23:21:13.006Z,201.27
2023-02-08T23:26:18.381Z,197.33
2023-02-08T23:31:21.135Z,189.53
2023-02-08T23:36:24.015Z,176.20
2023-02-08T23:41:26.440Z,189.73
2023-02-08T23:46:29.427Z,214.77
2023-02-08T23:51:32.559Z,168.27
2023-02-08T23:56:34.930Z,197.27
